createdAt,value
2022-10-06T00:00:02.096Z,71.99
2022-10-06T00:02:28.867Z,71.81
2022-10-06T00:04:55.575Z,71.63
2022-10-06T00:07:22.267Z,72.37
2022-10-06T00:09:48.888Z,72.45
2022-10-06T00:12:15.498Z,72.38
2022-10-06T00:14:53.411Z,72.69
2022-10-06T00:17:20.001Z,72.71
2022-10-06T00:19:46.604Z,72.76
2022-10-06T00:22:13.219Z,72.98
2022-10-06T00:24:39.854Z,73.51
2022-10-06T00:27:06.451Z,72.86
2022-10-06T00:29:33.036Z,73.27
2022-10-06T00:31:59.707Z,73.35
2022-10-06T00:34:26.444Z,72.84
2022-10-06T00:36:53.024Z,73.01
2022-10-06T00:39:20.414Z,72.92
2022-10-06T00:41:47.197Z,73.07
2022-10-06T00:44:13.836Z,72.80
2022-10-06T00:46:47.839Z,72.95
2022-10-06T00:49:36.005Z,73.17
2022-10-06T00:52:10.201Z,72.85
2022-10-06T00:55:28.433Z,72.95
2022-10-06T00:57:55.052Z,73.32
2022-10-06T01:00:21.701Z,73.47
2022-10-06T01:02:54.812Z,73.39
2022-10-06T01:05:26.110Z,73.10
2022-10-06T01:07:53.022Z,73.40
2022-10-06T01:10:20.174Z,73.08
2022-10-06T01:12:46.749Z,73.50
2022-10-06T01:15:13.447Z,73.21
2022-10-06T01:17:57.697Z,72.95
2022-10-06T01:20:24.310Z,73.57
2022-10-06T01:22:55.577Z,73.27
2022-10-06T01:25:22.291Z,73.80
2022-10-06T01:27:53.579Z,73.95
2022-10-06T01:30:28.712Z,73.74
2022-10-06T01:32:55.461Z,74.18
2022-10-06T01:35:22.081Z,74.13
2022-10-06T01:37:48.690Z,73.91
2022-10-06T01:40:15.297Z,74.16
2022-10-06T01:42:41.911Z,74.11
2022-10-06T01:45:08.797Z,74.42
2022-10-06T01:47:35.431Z,74.54
2022-10-06T01:50:02.102Z,74.14
2022-10-06T01:52:28.928Z,74.62
2022-10-06T01:54:55.594Z,74.43
2022-10-06T01:57:22.176Z,74.52
2022-10-06T01:59:52.685Z,74.78
2022-10-06T02:02:21.306Z,74.65
2022-10-06T02:04:47.926Z,74.56
2022-10-06T02:07:14.572Z,75.20
2022-10-06T02:09:41.198Z,74.87
2022-10-06T02:12:07.859Z,75.05
2022-10-06T02:14:34.847Z,75.43
2022-10-06T02:17:01.461Z,75.63
2022-10-06T02:19:32.199Z,75.14
2022-10-06T02:21:58.821Z,74.84
2022-10-06T02:24:25.424Z,74.44
2022-10-06T02:26:53.147Z,74.37
2022-10-06T02:29:20.515Z,73.99
2022-10-06T02:31:47.257Z,73.67
2022-10-06T02:34:13.827Z,73.54
2022-10-06T02:36:40.446Z,73.14
2022-10-06T02:39:07.077Z,73.29
2022-10-06T02:41:33.831Z,73.29
2022-10-06T02:44:00.424Z,73.25
2022-10-06T02:46:27.543Z,73.25
2022-10-06T02:48:54.241Z,72.87
2022-10-06T02:51:21.680Z,73.06
2022-10-06T02:53:48.764Z,72.75
2022-10-06T02:56:20.274Z,73.16
2022-10-06T02:58:48.017Z,73.38
2022-10-06T03:01:16.777Z,73.37
2022-10-06T03:03:43.622Z,73.58
2022-10-06T03:06:22.130Z,73.16
2022-10-06T03:08:48.853Z,73.69
2022-10-06T03:11:15.598Z,73.90
2022-10-06T03:13:42.219Z,73.52
2022-10-06T03:16:16.312Z,73.66
2022-10-06T03:18:46.903Z,74.08
2022-10-06T03:21:14.966Z,74.07
2022-10-06T03:23:43.051Z,73.56
2022-10-06T03:26:09.950Z,73.66
2022-10-06T03:28:36.634Z,73.89
2022-10-06T03:31:03.894Z,74.03
2022-10-06T03:33:30.857Z,73.90
2022-10-06T03:36:01.124Z,74.67
2022-10-06T03:38:28.144Z,74.63
2022-10-06T03:41:05.104Z,74.53
2022-10-06T03:43:31.780Z,74.97
2022-10-06T03:45:59.273Z,75.43
2022-10-06T03:48:26.426Z,75.10
2022-10-06T03:51:01.209Z,75.50
2022-10-06T03:53:28.545Z,75.48
2022-10-06T03:56:07.173Z,75.35
2022-10-06T03:58:38.374Z,75.54
2022-10-06T04:01:08.837Z,75.72
2022-10-06T04:03:35.507Z,75.77
2022-10-06T04:06:03.996Z,76.47
2022-10-06T04:08:31.377Z,76.22
2022-10-06T04:11:09.077Z,75.96
2022-10-06T04:13:35.786Z,76.37
2022-10-06T04:16:22.460Z,77.27
2022-10-06T04:18:50.817Z,76.94
2022-10-06T04:21:17.476Z,77.73
2022-10-06T04:23:44.247Z,77.57
2022-10-06T04:26:17.763Z,77.98
2022-10-06T04:28:44.754Z,77.13
2022-10-06T04:35:05.863Z,77.54
2022-10-06T04:37:32.435Z,78.08
2022-10-06T04:39:59.169Z,77.91
2022-10-06T04:42:25.782Z,77.87
2022-10-06T04:44:52.351Z,78.30
2022-10-06T04:47:18.928Z,77.83
2022-10-06T04:49:45.562Z,77.94
2022-10-06T04:52:12.156Z,77.74
2022-10-06T04:54:38.756Z,77.72
2022-10-06T04:57:05.959Z,78.05
2022-10-06T04:59:50.972Z,77.92
2022-10-06T05:02:18.122Z,77.64
2022-10-06T05:04:45.139Z,77.51
2022-10-06T05:07:11.734Z,78.00
2022-10-06T05:09:38.433Z,77.82
2022-10-06T05:12:05.078Z,77.61
2022-10-06T05:14:33.459Z,78.33
2022-10-06T05:17:00.914Z,77.95
2022-10-06T05:19:27.634Z,77.78
2022-10-06T05:21:54.254Z,77.98
2022-10-06T05:24:20.881Z,78.56
2022-10-06T05:26:47.451Z,77.96
2022-10-06T05:29:14.069Z,79.22
2022-10-06T05:31:43.200Z,78.76
2022-10-06T05:34:09.840Z,78.84
2022-10-06T05:36:36.495Z,78.66
2022-10-06T05:39:03.899Z,78.55
2022-10-06T05:48:58.913Z,78.71
2022-10-06T05:51:30.654Z,78.55
2022-10-06T05:54:00.560Z,79.22
2022-10-06T05:56:31.502Z,78.62
2022-10-06T05:58:58.628Z,78.94
2022-10-06T06:01:35.035Z,78.97
2022-10-06T06:04:03.489Z,79.34
2022-10-06T06:06:32.179Z,79.77
2022-10-06T06:08:59.613Z,79.53
2022-10-06T06:11:27.890Z,79.56
2022-10-06T06:13:58.659Z,79.34
2022-10-06T06:16:25.747Z,79.26
2022-10-06T06:18:52.405Z,79.14
2022-10-06T06:21:19.049Z,79.07
2022-10-06T06:23:46.851Z,79.74
2022-10-06T06:26:15.479Z,79.42
2022-10-06T06:28:42.381Z,79.01
2022-10-06T06:31:10.930Z,79.28
2022-10-06T06:33:38.889Z,79.69
2022-10-06T06:36:15.358Z,79.31
2022-10-06T06:38:42.368Z,79.87
2022-10-06T06:41:22.728Z,80.20
2022-10-06T06:43:50.035Z,79.82
2022-10-06T06:46:18.187Z,79.84
2022-10-06T06:48:45.512Z,79.51
2022-10-06T06:51:12.202Z,79.75
2022-10-06T06:53:41.937Z,79.83
2022-10-06T06:56:08.904Z,79.98
2022-10-06T06:58:35.902Z,80.15
2022-10-06T07:01:08.955Z,79.44
2022-10-06T07:06:27.785Z,79.12
2022-10-06T07:08:54.997Z,78.89
2022-10-06T07:11:23.208Z,77.77
2022-10-06T07:13:57.772Z,77.50
2022-10-06T07:16:42.954Z,75.98
2022-10-06T07:19:29.307Z,76.11
2022-10-06T07:22:35.575Z,75.26
2022-10-06T07:25:08.513Z,73.88
2022-10-06T07:27:46.011Z,71.65
2022-10-06T07:30:19.468Z,71.28
2022-10-06T07:32:50.303Z,70.65
2022-10-06T07:35:21.218Z,69.71
2022-10-06T07:37:48.526Z,69.16
2022-10-06T07:40:15.337Z,68.87
2022-10-06T07:42:53.927Z,68.61
2022-10-06T07:45:41.115Z,66.48
2022-10-06T07:48:09.685Z,63.26
2022-10-06T07:50:38.278Z,59.17
2022-10-06T07:53:08.834Z,52.56
2022-10-06T07:55:40.044Z,50.62
2022-10-06T07:58:16.740Z,47.00
2022-10-06T08:00:43.553Z,43.64
2022-10-06T08:03:11.004Z,40.79
2022-10-06T08:05:39.260Z,38.20
2022-10-06T08:08:06.279Z,35.40
2022-10-06T08:10:32.918Z,32.95
2022-10-06T08:12:59.515Z,29.75
2022-10-06T08:15:26.106Z,29.59
2022-10-06T08:17:54.227Z,29.50
2022-10-06T08:20:20.880Z,30.76
2022-10-06T08:22:48.023Z,32.96
2022-10-06T08:25:15.053Z,33.86
2022-10-06T08:27:44.204Z,35.21
2022-10-06T08:30:11.382Z,36.00
2022-10-06T08:32:38.336Z,37.66
2022-10-06T08:35:05.306Z,38.78
2022-10-06T08:37:31.890Z,39.75
2022-10-06T08:39:58.502Z,41.39
2022-10-06T08:42:37.473Z,41.92
2022-10-06T08:45:06.646Z,43.87
2022-10-06T08:47:35.353Z,44.89
2022-10-06T08:50:04.136Z,46.26
2022-10-06T08:52:36.303Z,46.77
2022-10-06T08:55:24.654Z,47.76
2022-10-06T09:00:37.654Z,50.11
2022-10-06T09:03:05.628Z,50.96
2022-10-06T09:05:34.764Z,51.47
2022-10-06T09:08:04.366Z,52.08
2022-10-06T09:10:39.909Z,53.38
2022-10-06T09:13:09.277Z,53.38
2022-10-06T09:15:47.005Z,53.31
2022-10-06T09:18:34.813Z,53.85
2022-10-06T09:21:16.155Z,53.79
2022-10-06T09:23:48.593Z,54.61
2022-10-06T09:26:34.403Z,55.81
2022-10-06T09:29:01.029Z,55.52
2022-10-06T09:31:29.331Z,54.98
2022-10-06T09:34:21.769Z,55.04
2022-10-06T09:37:09.132Z,54.88
2022-10-06T09:39:37.350Z,55.48
2022-10-06T09:42:13.920Z,54.64
2022-10-06T09:44:52.714Z,55.26
2022-10-06T09:47:39.719Z,55.28
2022-10-06T09:50:12.077Z,56.03
2022-10-06T09:52:39.383Z,54.68
2022-10-06T09:55:12.529Z,54.55
2022-10-06T09:57:39.210Z,56.21
2022-10-06T10:00:42.958Z,55.29
2022-10-06T10:03:11.128Z,54.93
2022-10-06T10:05:39.526Z,55.27
2022-10-06T10:08:13.077Z,55.53
2022-10-06T10:10:39.856Z,56.15
2022-10-06T10:13:21.235Z,56.85
2022-10-06T10:15:59.204Z,56.49
2022-10-06T10:18:28.629Z,55.99
2022-10-06T10:21:05.147Z,56.06
2022-10-06T10:23:42.725Z,55.99
2022-10-06T10:26:50.254Z,55.70
2022-10-06T10:29:22.842Z,56.37
2022-10-06T10:32:18.683Z,56.05
2022-10-06T10:35:20.751Z,56.48
2022-10-06T10:38:00.300Z,56.84
2022-10-06T10:40:34.423Z,55.76
2022-10-06T10:43:19.658Z,55.24
2022-10-06T10:45:49.083Z,56.69
2022-10-06T10:48:40.083Z,55.78
2022-10-06T10:51:13.484Z,55.19
2022-10-06T10:53:47.704Z,55.65
2022-10-06T10:56:16.248Z,55.46
2022-10-06T10:58:43.758Z,55.65
2022-10-06T11:01:32.243Z,55.87
2022-10-06T11:03:58.955Z,54.69
2022-10-06T11:07:01.510Z,55.79
2022-10-06T11:09:46.312Z,55.20
2022-10-06T11:12:25.142Z,54.25
2022-10-06T11:15:03.568Z,55.13
2022-10-06T11:17:44.791Z,55.08
2022-10-06T11:20:26.075Z,54.44
2022-10-06T11:23:06.830Z,55.51
2022-10-06T11:25:42.724Z,54.15
2022-10-06T11:28:17.398Z,53.92
2022-10-06T11:30:59.234Z,53.87
2022-10-06T11:33:29.783Z,52.94
2022-10-06T11:35:56.515Z,53.05
2022-10-06T11:38:25.308Z,53.46
2022-10-06T11:41:10.450Z,52.88
2022-10-06T11:44:00.234Z,53.92
2022-10-06T11:46:41.276Z,54.13
2022-10-06T11:49:29.080Z,55.31
2022-10-06T11:52:08.701Z,56.49
2022-10-06T11:54:56.713Z,56.30
2022-10-06T11:57:29.353Z,55.05
2022-10-06T12:00:02.314Z,56.33
2022-10-06T12:02:35.275Z,54.77
2022-10-06T12:05:55.261Z,55.20
2022-10-06T12:08:01.300Z,56.72
2022-10-06T12:10:27.880Z,54.98
2022-10-06T12:13:31.732Z,55.77
2022-10-06T12:19:57.455Z,55.08
2022-10-06T12:23:00.527Z,55.83
2022-10-06T12:25:31.670Z,56.93
2022-10-06T12:28:21.725Z,56.38
2022-10-06T12:31:18.069Z,55.82
2022-10-06T12:33:45.145Z,56.88
2022-10-06T12:40:42.448Z,56.54
2022-10-06T12:43:14.901Z,56.29
2022-10-06T12:45:46.130Z,56.14
2022-10-06T12:48:47.172Z,55.78
2022-10-06T12:51:13.720Z,55.74
2022-10-06T12:53:45.793Z,57.59
2022-10-06T12:56:23.271Z,57.12
2022-10-06T12:58:49.891Z,57.73
2022-10-06T13:01:16.787Z,57.17
2022-10-06T13:03:47.545Z,58.80
2022-10-06T13:06:14.146Z,58.08
2022-10-06T13:08:41.782Z,57.90
2022-10-06T13:11:27.323Z,56.98
2022-10-06T13:13:55.594Z,57.63
2022-10-06T13:16:23.670Z,58.07
2022-10-06T13:18:54.387Z,57.98
2022-10-06T13:21:20.989Z,57.46
2022-10-06T13:23:47.560Z,58.28
2022-10-06T13:26:30.351Z,58.58
2022-10-06T13:28:57.751Z,58.72
2022-10-06T13:31:37.686Z,58.08
2022-10-06T13:34:09.678Z,57.38
2022-10-06T13:36:41.897Z,57.85
2022-10-06T13:39:18.475Z,57.72
2022-10-06T13:41:57.678Z,57.46
2022-10-06T13:44:33.503Z,58.31
2022-10-06T13:47:02.430Z,57.23
2022-10-06T13:49:45.768Z,58.54
2022-10-06T13:52:34.204Z,59.30
2022-10-06T13:55:01.361Z,58.54
2022-10-06T13:57:42.520Z,57.77
2022-10-06T14:00:16.199Z,57.57
2022-10-06T14:02:43.859Z,57.12
2022-10-06T14:05:19.839Z,57.44
2022-10-06T14:07:47.417Z,57.29
2022-10-06T14:10:47.933Z,57.16
2022-10-06T14:13:29.753Z,57.83
2022-10-06T14:16:04.586Z,57.11
2022-10-06T14:18:38.531Z,57.33
2022-10-06T14:21:17.584Z,57.97
2022-10-06T14:23:50.718Z,58.15
2022-10-06T14:26:19.027Z,57.98
2022-10-06T14:28:47.728Z,58.63
2022-10-06T14:31:14.975Z,58.10
2022-10-06T14:33:41.870Z,59.05
2022-10-06T14:36:23.439Z,59.29
2022-10-06T14:38:50.949Z,60.30
2022-10-06T14:41:19.446Z,60.15
2022-10-06T14:43:47.701Z,59.45
2022-10-06T14:46:15.701Z,58.41
2022-10-06T14:48:42.459Z,58.08
2022-10-06T14:51:09.607Z,59.20
2022-10-06T14:53:39.377Z,58.61
2022-10-06T14:56:08.410Z,59.34
2022-10-06T14:58:38.757Z,58.82
2022-10-06T15:01:08.090Z,58.36
2022-10-06T15:03:35.494Z,58.78
2022-10-06T15:06:24.278Z,59.49
2022-10-06T15:08:52.059Z,59.26
2022-10-06T15:11:21.300Z,59.03
2022-10-06T15:13:48.225Z,58.55
2022-10-06T15:16:15.594Z,59.15
2022-10-06T15:18:42.939Z,59.04
2022-10-06T15:21:11.364Z,59.49
2022-10-06T15:23:38.455Z,59.78
2022-10-06T15:26:24.539Z,59.92
2022-10-06T15:29:00.906Z,60.17
2022-10-06T15:31:29.584Z,61.22
2022-10-06T15:33:56.385Z,60.96
2022-10-06T15:36:24.399Z,61.04
2022-10-06T15:38:52.074Z,61.48
2022-10-06T15:41:19.003Z,61.90
2022-10-06T15:43:58.018Z,62.22
2022-10-06T15:46:30.173Z,62.21
2022-10-06T15:49:03.658Z,62.46
2022-10-06T15:51:36.554Z,62.65
2022-10-06T15:54:03.349Z,62.77
2022-10-06T15:56:31.785Z,63.54
2022-10-06T15:59:01.960Z,63.68
2022-10-06T16:01:39.349Z,64.04
2022-10-06T16:04:12.598Z,64.40
2022-10-06T16:06:48.972Z,64.46
2022-10-06T16:09:17.138Z,65.00
2022-10-06T16:11:43.844Z,65.22
2022-10-06T16:14:10.559Z,65.79
2022-10-06T16:16:42.671Z,65.69
2022-10-06T16:19:10.848Z,66.76
2022-10-06T16:21:37.457Z,66.68
2022-10-06T16:24:04.204Z,66.92
2022-10-06T16:26:31.147Z,67.02
2022-10-06T16:28:57.805Z,67.55
2022-10-06T16:31:24.574Z,67.87
2022-10-06T16:33:51.288Z,68.14
2022-10-06T16:36:18.104Z,68.06
2022-10-06T16:38:44.792Z,68.66
2022-10-06T16:41:11.541Z,68.97
2022-10-06T16:43:42.449Z,68.99
2022-10-06T16:46:10.727Z,69.03
2022-10-06T16:48:38.895Z,69.42
2022-10-06T16:51:10.268Z,69.46
2022-10-06T16:53:58.086Z,69.57
2022-10-06T16:56:27.416Z,70.18
2022-10-06T16:58:58.365Z,70.72
2022-10-06T17:01:26.853Z,70.65
2022-10-06T17:04:06.883Z,70.87
2022-10-06T17:06:39.475Z,71.00
2022-10-06T17:09:14.479Z,71.38
2022-10-06T17:11:51.816Z,71.26
2022-10-06T17:14:19.496Z,71.49
2022-10-06T17:16:46.580Z,71.51
2022-10-06T17:19:14.411Z,71.50
2022-10-06T17:21:46.152Z,71.97
2022-10-06T17:24:14.355Z,71.96
2022-10-06T17:26:42.539Z,71.84
2022-10-06T17:29:13.946Z,72.36
2022-10-06T17:31:42.323Z,71.96
2022-10-06T17:34:12.053Z,72.92
2022-10-06T17:36:39.616Z,73.30
2022-10-06T17:39:06.763Z,73.82
2022-10-06T17:41:37.359Z,74.87
2022-10-06T17:44:05.421Z,74.54
2022-10-06T17:46:48.737Z,74.90
2022-10-06T17:49:16.719Z,75.14
2022-10-06T17:51:45.640Z,75.87
2022-10-06T17:54:16.208Z,75.82
2022-10-06T17:56:43.568Z,75.94
2022-10-06T17:59:15.072Z,77.22
2022-10-06T18:01:42.147Z,77.68
2022-10-06T18:04:29.707Z,78.67
2022-10-06T18:06:57.121Z,79.54
2022-10-06T18:09:24.740Z,79.63
2022-10-06T18:11:59.872Z,78.80
2022-10-06T18:14:28.166Z,79.01
2022-10-06T18:17:38.581Z,79.84
2022-10-06T18:20:06.371Z,80.39
2022-10-06T18:22:33.044Z,80.17
2022-10-06T18:25:00.096Z,80.08
2022-10-06T18:27:27.370Z,79.96
2022-10-06T18:29:54.052Z,80.45
2022-10-06T18:34:06.875Z,80.21
2022-10-06T18:38:39.493Z,80.21
2022-10-06T18:45:05.148Z,78.86
2022-10-06T18:47:50.555Z,78.40
2022-10-06T18:50:17.303Z,78.68
2022-10-06T18:52:43.909Z,79.07
2022-10-06T18:55:10.564Z,78.65
2022-10-06T18:57:37.189Z,78.76
2022-10-06T19:00:04.419Z,79.14
2022-10-06T19:02:32.325Z,79.18
2022-10-06T19:04:59.048Z,79.25
2022-10-06T19:07:25.855Z,80.15
2022-10-06T19:09:52.512Z,81.86
2022-10-06T19:12:19.350Z,82.34
2022-10-06T19:14:47.848Z,84.03
2022-10-06T19:17:15.160Z,84.09
2022-10-06T19:19:45.949Z,83.94
2022-10-06T19:22:13.907Z,82.90
2022-10-06T19:24:42.170Z,82.52
2022-10-06T19:27:20.745Z,81.87
2022-10-06T19:29:54.354Z,81.57
2022-10-06T19:32:23.652Z,81.19
2022-10-06T19:34:50.329Z,81.20
2022-10-06T19:37:17.000Z,82.26
2022-10-06T19:39:45.242Z,82.65
2022-10-06T19:42:34.273Z,82.94
2022-10-06T19:45:00.932Z,83.00
2022-10-06T19:47:27.888Z,83.25
2022-10-06T19:49:58.941Z,83.13
2022-10-06T19:52:27.647Z,83.50
2022-10-06T19:54:54.327Z,84.70
2022-10-06T19:57:20.923Z,85.17
2022-10-06T19:59:47.553Z,85.05
2022-10-06T20:02:14.214Z,84.77
2022-10-06T20:04:58.814Z,85.02
2022-10-06T20:07:27.976Z,85.04
2022-10-06T20:09:55.163Z,84.88
2022-10-06T20:12:50.733Z,86.49
2022-10-06T20:15:17.369Z,86.69
2022-10-06T20:18:10.482Z,86.65
2022-10-06T20:20:37.072Z,85.70
2022-10-06T20:23:03.691Z,84.41
2022-10-06T20:25:31.242Z,83.08
2022-10-06T20:27:57.884Z,83.15
2022-10-06T20:30:24.597Z,83.12
2022-10-06T20:32:53.730Z,82.43
2022-10-06T20:35:20.377Z,82.67
2022-10-06T20:37:47.284Z,82.67
2022-10-06T20:40:32.698Z,82.62
2022-10-06T20:43:32.050Z,83.14
2022-10-06T20:45:59.830Z,83.10
2022-10-06T20:48:28.866Z,83.45
2022-10-06T20:50:56.423Z,83.85
2022-10-06T20:53:31.529Z,83.88
2022-10-06T20:56:00.274Z,83.71
2022-10-06T20:58:26.956Z,84.70
2022-10-06T21:00:54.013Z,85.24
2022-10-06T21:03:20.656Z,84.87
2022-10-06T21:05:50.683Z,84.80
2022-10-06T21:08:17.354Z,85.01
2022-10-06T21:10:44.017Z,84.22
2022-10-06T21:13:10.749Z,84.17
2022-10-06T21:15:45.283Z,84.72
2022-10-06T21:18:12.006Z,85.74
2022-10-06T21:20:41.842Z,85.82
2022-10-06T21:23:13.403Z,85.33
2022-10-06T21:25:40.071Z,85.22
2022-10-06T21:28:07.188Z,84.93
2022-10-06T21:30:34.596Z,84.40
2022-10-06T21:33:01.454Z,84.63
2022-10-06T21:35:28.158Z,84.55
2022-10-06T21:37:54.808Z,84.76
2022-10-06T21:40:21.496Z,84.54
2022-10-06T21:42:48.157Z,84.72
2022-10-06T21:45:15.116Z,85.01
2022-10-06T21:47:42.132Z,84.79
2022-10-06T21:50:09.456Z,84.88
2022-10-06T21:52:36.197Z,84.40
2022-10-06T21:55:02.845Z,83.95
2022-10-06T21:57:29.558Z,84.02
2022-10-06T21:59:58.991Z,83.64
2022-10-06T22:02:25.644Z,83.44
2022-10-06T22:04:52.355Z,83.62
2022-10-06T22:07:19.041Z,83.74
2022-10-06T22:09:45.720Z,83.42
2022-10-06T22:12:12.396Z,83.54
2022-10-06T22:14:39.059Z,84.08
2022-10-06T22:17:05.693Z,84.04
2022-10-06T22:19:32.428Z,84.64
2022-10-06T22:21:59.123Z,85.21
2022-10-06T22:24:26.475Z,85.10
2022-10-06T22:26:53.213Z,84.80
2022-10-06T22:29:20.202Z,84.69
2022-10-06T22:31:47.300Z,84.63
2022-10-06T22:34:15.169Z,85.10
2022-10-06T22:36:41.957Z,84.53
2022-10-06T22:39:08.805Z,84.45
2022-10-06T22:41:35.467Z,84.42
2022-10-06T22:44:02.239Z,84.58
2022-10-06T22:46:30.962Z,83.75
2022-10-06T22:48:57.831Z,84.47
2022-10-06T22:51:24.697Z,84.91
2022-10-06T22:53:57.856Z,85.03
2022-10-06T22:56:25.229Z,85.22
2022-10-06T22:58:51.860Z,85.99
2022-10-06T23:01:19.652Z,86.22
2022-10-06T23:03:46.735Z,87.65
2022-10-06T23:06:14.388Z,88.46
2022-10-06T23:08:41.088Z,88.97
2022-10-06T23:11:13.066Z,89.22
2022-10-06T23:13:40.108Z,90.06
2022-10-06T23:16:08.457Z,90.95
2022-10-06T23:18:36.096Z,91.43
2022-10-06T23:21:07.524Z,91.29
2022-10-06T23:23:34.365Z,91.20
2022-10-06T23:26:08.578Z,90.83
2022-10-06T23:28:35.294Z,90.08
2022-10-06T23:31:03.861Z,90.07
2022-10-06T23:33:31.373Z,89.79
2022-10-06T23:35:59.133Z,89.62
2022-10-06T23:38:26.019Z,89.54
2022-10-06T23:40:52.863Z,88.65
2022-10-06T23:43:19.602Z,88.32
2022-10-06T23:45:46.332Z,88.11
2022-10-06T23:48:13.070Z,87.18
2022-10-06T23:50:40.149Z,86.50
2022-10-06T23:53:07.062Z,85.91
2022-10-06T23:55:33.717Z,85.72
2022-10-06T23:58:00.368Z,85.27
